Time;durP1;ratioP1;P1;durP2;ratioP2;P2;SDS_P1;SDS_P2;PMS_P1;PMS_P2;Temp;Humidity;BMP_temperature;BMP_pressure;BME280_temperature;BME280_humidity;BME280_pressure;Samples;Min_cycle;Max_cycle;Signal;HPM_P1;HPM_P2
2022/09/27 00:00:41;;;;;;;5.38;0.70;;;9.60;99.90;;;;;;5045650;28;20502;-55
2022/09/27 00:03:09;;;;;;;4.47;1.20;;;9.70;99.90;;;;;;5035005;28;20096;-54
2022/09/27 00:05:34;;;;;;;4.93;1.00;;;9.60;99.90;;;;;;5040432;28;20598;-51
2022/09/27 00:08:00;;;;;;;7.80;1.17;;;9.60;99.90;;;;;;5041209;28;20412;-53
2022/09/27 00:10:29;;;;;;;4.63;0.60;;;9.60;99.90;;;;;;5045037;28;20512;-53
2022/09/27 00:12:56;;;;;;;7.75;0.90;;;9.60;99.90;;;;;;5041931;28;20054;-54
2022/09/27 00:15:22;;;;;;;4.50;0.70;;;9.50;99.90;;;;;;5047325;28;20167;-55
2022/09/27 00:17:51;;;;;;;5.13;1.00;;;9.50;99.90;;;;;;5040080;28;20090;-55
2022/09/27 00:20:19;;;;;;;5.15;0.80;;;9.50;99.90;;;;;;5048179;28;20507;-54
2022/09/27 00:22:46;;;;;;;5.40;0.80;;;9.50;99.90;;;;;;5041389;28;20482;-54
2022/09/27 00:25:12;;;;;;;5.38;0.95;;;9.50;99.90;;;;;;5051927;28;20051;-54
2022/09/27 00:27:38;;;;;;;6.65;1.00;;;9.50;99.90;;;;;;5023970;28;20045;-53
2022/09/27 00:30:04;;;;;;;6.13;1.00;;;9.50;99.90;;;;;;5042249;28;20076;-54
2022/09/27 00:32:29;;;;;;;4.70;1.02;;;9.50;99.90;;;;;;5040227;28;20071;-53
2022/09/27 00:34:55;;;;;;;9.73;1.20;;;9.40;99.90;;;;;;5050353;28;20586;-55
2022/09/27 00:37:21;;;;;;;7.72;1.00;;;9.40;99.90;;;;;;5045727;28;20076;-54
2022/09/27 00:39:46;;;;;;;4.82;0.98;;;9.40;99.90;;;;;;5042031;28;20592;-54
2022/09/27 00:42:12;;;;;;;4.75;0.90;;;9.40;99.90;;;;;;5048362;28;20455;-53
2022/09/27 00:44:38;;;;;;;4.63;1.08;;;9.40;99.90;;;;;;5044366;28;20096;-55
2022/09/27 00:47:04;;;;;;;5.35;0.88;;;9.30;99.90;;;;;;5054805;28;20474;-54
2022/09/27 00:49:38;;;;;;;5.53;1.00;;;9.30;99.90;;;;;;5053706;28;20045;-52
2022/09/27 00:52:10;;;;;;;5.18;1.00;;;9.40;99.90;;;;;;5046468;28;20383;-52
2022/09/27 00:54:40;;;;;;;4.97;1.05;;;9.30;99.90;;;;;;5050064;28;20049;-51
2022/09/27 00:57:05;;;;;;;4.60;1.15;;;9.40;99.90;;;;;;5053068;28;20140;-53
2022/09/27 00:59:33;;;;;;;5.93;1.08;;;9.40;99.90;;;;;;5050405;28;20044;-55
2022/09/27 01:01:59;;;;;;;5.32;1.20;;;9.40;99.90;;;;;;5054154;28;20541;-51
2022/09/27 01:04:28;;;;;;;3.50;0.90;;;9.50;99.90;;;;;;5041250;28;20057;-54
2022/09/27 01:06:54;;;;;;;5.93;1.20;;;9.50;99.90;;;;;;5051726;28;20162;-52
2022/09/27 01:09:21;;;;;;;9.40;1.15;;;9.50;99.90;;;;;;5052474;28;20054;-54
2022/09/27 01:11:56;;;;;;;7.10;1.08;;;9.50;99.90;;;;;;5055226;28;20486;-53
2022/09/27 01:14:51;;;;;;;5.20;0.80;;;9.60;99.90;;;;;;5050550;28;20083;-53
2022/09/27 01:17:23;;;;;;;4.35;1.48;;;9.50;99.90;;;;;;5023240;28;20048;-55
2022/09/27 01:20:17;;;;;;;6.05;0.82;;;9.50;99.90;;;;;;5051012;28;20470;-55
2022/09/27 01:22:55;;;;;;;3.50;0.50;;;9.50;99.90;;;;;;5048290;28;20048;-54
2022/09/27 01:25:45;;;;;;;3.50;0.60;;;9.50;99.90;;;;;;5045742;28;20076;-54
2022/09/27 01:28:26;;;;;;;5.50;0.80;;;9.50;99.90;;;;;;5050988;28;20056;-51
2022/09/27 01:30:55;;;;;;;4.43;0.80;;;9.50;99.90;;;;;;5057238;28;20064;-53
2022/09/27 01:34:10;;;;;;;4.68;1.70;;;9.40;99.90;;;;;;5050898;28;20510;-54
2022/09/27 01:37:00;;;;;;;6.22;1.00;;;9.50;99.90;;;;;;4964048;28;20066;-54
2022/09/27 01:39:43;;;;;;;3.60;0.80;;;9.50;99.90;;;;;;4962065;28;20090;-53
2022/09/27 01:42:18;;;;;;;4.55;0.90;;;9.50;99.90;;;;;;4965738;28;20062;-54
2022/09/27 01:44:51;;;;;;;3.30;0.80;;;9.50;99.90;;;;;;4973974;28;20062;-54
2022/09/27 01:47:23;;;;;;;4.95;0.73;;;9.50;99.90;;;;;;4976619;28;20193;-55
2022/09/27 01:50:13;;;;;;;5.97;1.08;;;9.50;99.90;;;;;;4981876;28;20093;-53
2022/09/27 01:52:47;;;;;;;3.75;0.85;;;9.40;99.90;;;;;;4951538;28;20485;-50
2022/09/27 01:55:16;;;;;;;1.58;0.57;;;9.40;99.90;;;;;;4970010;28;20090;-52
2022/09/27 01:57:49;;;;;;;5.18;1.02;;;9.30;99.90;;;;;;4954002;28;20081;-52
2022/09/27 02:00:15;;;;;;;3.50;1.02;;;9.30;99.90;;;;;;4966571;28;20345;-53
2022/09/27 02:02:47;;;;;;;5.03;0.60;;;9.30;99.90;;;;;;4958682;28;20050;-54
2022/09/27 02:05:16;;;;;;;1.63;0.40;;;9.30;99.90;;;;;;4968545;28;20062;-53
2022/09/27 02:08:03;;;;;;;1.23;0.50;;;9.20;99.90;;;;;;4959865;28;20104;-53
2022/09/27 02:10:40;;;;;;;3.53;0.68;;;9.20;99.90;;;;;;4979049;28;20505;-52
2022/09/27 02:13:23;;;;;;;1.40;0.50;;;9.20;99.90;;;;;;5038574;28;20056;-56
2022/09/27 02:16:02;;;;;;;2.65;1.15;;;9.30;99.90;;;;;;5045666;28;20490;-51
2022/09/27 02:18:33;;;;;;;3.28;0.70;;;9.30;99.90;;;;;;5048185;28;20639;-52
2022/09/27 02:21:03;;;;;;;2.53;0.57;;;9.20;99.90;;;;;;5045498;28;20128;-50
2022/09/27 02:23:40;;;;;;;5.55;0.77;;;9.20;99.90;;;;;;5050970;28;20048;-54
2022/09/27 02:26:17;;;;;;;3.70;0.60;;;9.30;99.90;;;;;;5046987;28;20582;-53
2022/09/27 02:29:10;;;;;;;4.65;0.88;;;9.30;99.90;;;;;;5043609;28;20655;-51
2022/09/27 02:31:35;;;;;;;8.05;1.02;;;9.30;99.90;;;;;;5044169;28;20052;-52
2022/09/27 02:34:12;;;;;;;6.35;0.75;;;9.30;99.90;;;;;;5031457;28;20474;-52
2022/09/27 02:36:39;;;;;;;2.70;0.60;;;9.30;99.90;;;;;;5048587;28;20074;-52
2022/09/27 02:39:05;;;;;;;3.42;0.80;;;9.30;99.90;;;;;;5051610;28;20455;-52
2022/09/27 02:41:31;;;;;;;4.32;0.77;;;9.30;99.90;;;;;;5046321;28;20056;-51
2022/09/27 02:44:07;;;;;;;1.55;0.60;;;9.20;99.90;;;;;;5046735;28;20522;-54
2022/09/27 02:47:11;;;;;;;2.15;0.70;;;9.20;99.90;;;;;;5050230;28;20080;-54
2022/09/27 02:49:55;;;;;;;;;;;9.30;99.90;;;;;;5049060;28;20051;-53
2022/09/27 02:52:32;;;;;;;2.63;0.85;;;9.20;99.90;;;;;;5049504;28;20335;-51
2022/09/27 02:55:18;;;;;;;2.30;0.70;;;9.10;99.90;;;;;;5058295;28;20051;-54
2022/09/27 02:57:47;;;;;;;4.90;1.55;;;9.20;99.90;;;;;;5049839;28;20045;-54
2022/09/27 03:00:15;;;;;;;2.65;0.60;;;9.10;99.90;;;;;;5053783;28;20053;-53
2022/09/27 03:03:00;;;;;;;5.82;0.60;;;9.10;99.90;;;;;;5055557;28;20052;-54
2022/09/27 03:05:29;;;;;;;3.10;0.60;;;9.10;99.90;;;;;;5048239;28;20565;-53
2022/09/27 03:07:55;;;;;;;3.13;0.52;;;9.00;99.90;;;;;;5046433;28;20099;-51
2022/09/27 03:10:25;;;;;;;2.92;0.70;;;9.00;99.90;;;;;;5048340;28;20554;-50
2022/09/27 03:12:51;;;;;;;3.50;0.85;;;9.00;99.90;;;;;;5040792;28;20080;-52
2022/09/27 03:15:16;;;;;;;2.28;0.50;;;9.00;99.90;;;;;;5047947;28;20049;-54
2022/09/27 03:17:42;;;;;;;3.38;0.75;;;9.00;99.90;;;;;;5050214;28;21422;-52
2022/09/27 03:20:08;;;;;;;1.45;0.40;;;8.90;99.90;;;;;;5054609;28;20041;-50
2022/09/27 03:22:34;;;;;;;5.93;0.70;;;8.90;99.90;;;;;;5049078;28;20079;-51
2022/09/27 03:25:00;;;;;;;3.20;0.65;;;8.90;99.90;;;;;;5047055;28;20084;-50
2022/09/27 03:27:26;;;;;;;1.80;0.50;;;8.90;99.90;;;;;;5052119;28;20044;-50
2022/09/27 03:29:52;;;;;;;2.85;1.15;;;8.90;99.90;;;;;;5047436;28;20044;-52
2022/09/27 03:32:18;;;;;;;5.35;0.80;;;8.90;99.90;;;;;;5050301;28;20205;-50
2022/09/27 03:34:43;;;;;;;6.43;0.82;;;8.90;99.90;;;;;;5051449;28;20106;-54
2022/09/27 03:37:09;;;;;;;4.53;0.75;;;8.90;99.90;;;;;;5050579;28;20570;-55
2022/09/27 03:39:35;;;;;;;8.30;0.80;;;8.80;99.90;;;;;;5053704;28;20063;-54
2022/09/27 03:42:02;;;;;;;4.07;1.48;;;8.80;99.90;;;;;;5052586;28;20036;-50
2022/09/27 03:44:28;;;;;;;5.95;0.70;;;8.80;99.90;;;;;;5049358;28;20044;-55
2022/09/27 03:46:54;;;;;;;5.00;1.27;;;8.70;99.90;;;;;;5045494;28;20047;-53
2022/09/27 03:49:19;;;;;;;5.97;1.10;;;8.70;99.90;;;;;;5047773;28;20303;-52
2022/09/27 03:51:45;;;;;;;4.63;0.80;;;8.70;99.90;;;;;;5043647;28;20530;-53
2022/09/27 03:54:11;;;;;;;6.57;0.60;;;8.70;99.90;;;;;;5045087;28;20167;-53
2022/09/27 03:56:40;;;;;;;5.10;0.85;;;8.60;99.90;;;;;;5042589;28;20044;-55
2022/09/27 03:59:05;;;;;;;3.72;0.70;;;8.60;99.90;;;;;;5044903;28;20617;-51
2022/09/27 04:01:34;;;;;;;4.97;0.88;;;8.60;99.90;;;;;;5056577;28;20469;-52
2022/09/27 04:04:00;;;;;;;4.47;1.50;;;8.60;99.90;;;;;;5050746;28;20384;-54
2022/09/27 04:06:26;;;;;;;4.45;0.77;;;8.50;99.90;;;;;;5057230;28;20087;-51
2022/09/27 04:08:53;;;;;;;5.57;0.80;;;8.50;99.90;;;;;;5057730;28;20062;-53
2022/09/27 04:11:18;;;;;;;6.85;0.88;;;8.50;99.90;;;;;;5055005;28;20496;-57
2022/09/27 04:13:48;;;;;;;7.18;0.85;;;8.50;99.90;;;;;;5047904;28;20044;-57
2022/09/27 04:16:15;;;;;;;6.95;1.35;;;8.40;99.90;;;;;;5043753;28;20208;-53
2022/09/27 04:18:41;;;;;;;3.72;1.13;;;8.40;99.90;;;;;;5042405;28;20094;-50
2022/09/27 04:21:08;;;;;;;4.25;0.73;;;8.40;99.90;;;;;;5050123;28;20060;-53
2022/09/27 04:23:33;;;;;;;7.97;0.90;;;8.40;99.90;;;;;;5044834;28;20045;-52
2022/09/27 04:26:02;;;;;;;6.60;1.20;;;8.40;99.90;;;;;;5049002;28;20459;-51
2022/09/27 04:28:29;;;;;;;3.75;1.00;;;8.50;99.90;;;;;;5053547;28;20044;-52
2022/09/27 04:30:55;;;;;;;5.43;1.00;;;8.40;99.90;;;;;;5042221;28;20045;-50
2022/09/27 04:33:21;;;;;;;4.13;0.90;;;8.50;99.90;;;;;;5044554;28;20048;-52
2022/09/27 04:38:35;;;;;;;4.03;1.02;;;8.50;99.90;;;;;;5050625;28;20053;-50
2022/09/27 04:41:01;;;;;;;3.50;0.82;;;8.50;99.90;;;;;;5050658;28;20056;-49
2022/09/27 04:43:27;;;;;;;4.72;0.88;;;8.50;99.90;;;;;;5043658;28;20045;-52
2022/09/27 04:45:53;;;;;;;5.00;1.05;;;8.40;99.90;;;;;;5028895;28;20044;-50
2022/09/27 04:48:19;;;;;;;5.97;1.05;;;8.30;99.90;;;;;;5041123;28;20463;-51
2022/09/27 04:50:45;;;;;;;4.85;1.02;;;8.30;99.90;;;;;;5040394;28;20041;-50
2022/09/27 04:53:14;;;;;;;4.28;1.30;;;8.20;99.90;;;;;;5048032;28;20135;-53
2022/09/27 04:55:45;;;;;;;6.53;1.20;;;8.20;99.90;;;;;;5023711;28;20044;-50
2022/09/27 04:58:10;;;;;;;5.63;1.30;;;8.20;99.90;;;;;;5040216;28;20518;-50
2022/09/27 05:00:36;;;;;;;3.08;0.70;;;8.10;99.90;;;;;;5046494;28;20107;-52
2022/09/27 05:03:02;;;;;;;7.25;1.17;;;8.10;99.90;;;;;;5046853;28;20053;-55
2022/09/27 05:05:27;;;;;;;6.65;1.50;;;8.00;99.90;;;;;;5045110;28;20045;-51
2022/09/27 05:07:53;;;;;;;11.43;1.45;;;8.00;99.90;;;;;;5026469;28;20049;-53
2022/09/27 05:10:19;;;;;;;8.00;1.42;;;8.00;99.90;;;;;;5045202;28;20439;-53
2022/09/27 05:12:45;;;;;;;4.15;1.13;;;7.90;99.90;;;;;;5041975;28;20075;-52
2022/09/27 05:15:10;;;;;;;4.78;0.85;;;7.90;99.90;;;;;;5051025;28;20140;-52
2022/09/27 05:17:36;;;;;;;5.45;0.98;;;7.90;99.90;;;;;;5041966;28;20049;-51
2022/09/27 05:20:04;;;;;;;4.05;0.93;;;7.90;99.90;;;;;;5027330;28;20054;-51
2022/09/27 05:22:29;;;;;;;4.82;1.00;;;7.90;99.90;;;;;;5053281;28;20486;-53
2022/09/27 05:24:55;;;;;;;4.88;1.20;;;7.90;99.90;;;;;;5044432;28;20044;-51
2022/09/27 05:27:21;;;;;;;4.97;1.00;;;7.90;99.90;;;;;;5048201;28;20061;-52
2022/09/27 05:29:47;;;;;;;5.45;1.10;;;7.90;99.90;;;;;;5044732;28;20045;-51
2022/09/27 05:32:14;;;;;;;5.93;1.20;;;7.90;99.90;;;;;;5047369;28;20084;-55
2022/09/27 05:34:40;;;;;;;8.02;1.10;;;8.00;99.90;;;;;;5044816;28;20097;-51
2022/09/27 05:37:06;;;;;;;5.65;1.25;;;8.10;99.90;;;;;;5052394;28;20126;-54
2022/09/27 05:39:32;;;;;;;5.78;1.00;;;8.10;99.90;;;;;;5038684;28;20171;-55
2022/09/27 05:41:57;;;;;;;9.02;1.50;;;8.20;99.90;;;;;;5044997;28;20037;-50
2022/09/27 05:44:24;;;;;;;5.80;0.80;;;8.30;99.90;;;;;;5042724;28;20051;-49
2022/09/27 05:46:50;;;;;;;6.60;1.02;;;8.40;99.90;;;;;;5050343;28;20224;-52
2022/09/27 05:49:16;;;;;;;3.75;0.93;;;8.50;99.90;;;;;;5045130;28;20411;-49
2022/09/27 05:51:46;;;;;;;3.00;0.80;;;8.60;99.90;;;;;;5050339;28;20036;-50
2022/09/27 05:54:11;;;;;;;5.15;1.55;;;8.60;99.90;;;;;;5043801;28;20466;-53
2022/09/27 05:56:37;;;;;;;2.22;0.77;;;8.70;99.90;;;;;;5045569;28;20048;-53
2022/09/27 05:59:03;;;;;;;5.30;0.98;;;8.70;99.90;;;;;;5045872;28;20539;-51
2022/09/27 06:01:29;;;;;;;4.95;0.80;;;8.80;99.90;;;;;;5046685;28;20060;-52
2022/09/27 06:03:54;;;;;;;5.93;1.00;;;8.70;99.90;;;;;;5059700;28;20090;-50
2022/09/27 06:06:22;;;;;;;4.28;0.90;;;8.80;99.90;;;;;;5051591;28;20543;-51
2022/09/27 06:08:48;;;;;;;5.97;1.00;;;8.80;99.90;;;;;;5056202;28;20478;-53
2022/09/27 06:11:14;;;;;;;3.45;0.90;;;8.80;99.90;;;;;;5043935;28;20605;-53
2022/09/27 06:13:40;;;;;;;5.53;1.20;;;8.90;99.90;;;;;;5055252;28;20121;-53
2022/09/27 06:16:09;;;;;;;7.80;1.10;;;8.80;99.90;;;;;;5045771;28;20048;-51
2022/09/27 06:18:35;;;;;;;5.63;1.20;;;8.90;99.90;;;;;;5043157;28;20136;-51
2022/09/27 06:21:02;;;;;;;5.35;1.20;;;8.80;99.90;;;;;;5048068;28;20389;-53
2022/09/27 06:23:31;;;;;;;7.13;1.65;;;8.80;99.90;;;;;;5050331;28;20041;-49
2022/09/27 06:26:02;;;;;;;11.05;2.15;;;8.80;99.90;;;;;;5031867;28;20041;-53
2022/09/27 06:28:28;;;;;;;5.10;1.73;;;8.80;99.90;;;;;;5025374;28;20051;-51
2022/09/27 06:30:54;;;;;;;5.85;2.47;;;8.80;99.90;;;;;;5041812;28;20084;-53
2022/09/27 06:33:20;;;;;;;7.68;2.33;;;8.80;99.90;;;;;;5044718;28;20059;-49
2022/09/27 06:35:48;;;;;;;6.15;2.42;;;8.80;99.90;;;;;;5052440;28;20041;-51
2022/09/27 06:38:16;;;;;;;5.03;2.55;;;8.80;99.90;;;;;;5049228;28;20041;-52
2022/09/27 06:40:44;;;;;;;10.15;2.90;;;8.90;99.90;;;;;;5051376;28;20064;-51
2022/09/27 06:43:34;;;;;;;8.88;3.67;;;9.00;99.90;;;;;;5056884;28;20048;-56
2022/09/27 06:46:06;;;;;;;11.63;4.53;;;9.10;99.90;;;;;;5047952;28;20056;-53
2022/09/27 06:48:33;;;;;;;9.65;3.78;;;9.10;99.90;;;;;;5053991;28;20119;-58
2022/09/27 06:50:59;;;;;;;6.22;2.85;;;9.30;99.90;;;;;;5049957;28;20045;-49
2022/09/27 06:53:25;;;;;;;8.25;2.70;;;9.40;99.90;;;;;;5046567;28;23416;-51
2022/09/27 06:55:51;;;;;;;6.50;2.22;;;9.40;99.90;;;;;;5048732;28;20127;-50
2022/09/27 07:01:02;;;;;;;7.93;2.25;;;9.60;99.90;;;;;;5049458;28;20041;-49
2022/09/27 07:03:34;;;;;;;5.50;1.75;;;9.70;99.90;;;;;;5041494;28;20396;-51
2022/09/27 07:06:02;;;;;;;6.93;1.60;;;9.80;99.90;;;;;;5041641;28;20049;-53
2022/09/27 07:08:28;;;;;;;5.10;2.00;;;10.10;99.90;;;;;;5044590;28;20044;-49
2022/09/27 07:11:00;;;;;;;6.40;1.60;;;10.30;99.90;;;;;;5049355;28;20515;-50
2022/09/27 07:13:31;;;;;;;5.05;1.50;;;10.50;99.90;;;;;;5063033;28;20058;-51
2022/09/27 07:15:57;;;;;;;6.13;1.50;;;10.70;99.90;;;;;;5067951;28;20075;-51
2022/09/27 07:18:22;;;;;;;5.50;1.60;;;10.60;99.90;;;;;;5079353;28;20539;-51
2022/09/27 07:20:49;;;;;;;4.75;2.03;;;10.70;99.90;;;;;;5071074;28;20040;-51
2022/09/27 07:23:16;;;;;;;4.40;1.15;;;10.70;99.90;;;;;;5069589;28;20048;-50
2022/09/27 07:25:42;;;;;;;4.25;1.08;;;10.80;99.90;;;;;;5080045;28;20052;-52
2022/09/27 07:28:16;;;;;;;5.28;1.48;;;10.80;99.90;;;;;;5045066;28;20135;-52
2022/09/27 07:30:43;;;;;;;3.10;0.77;;;10.80;99.90;;;;;;5070801;28;20048;-51
2022/09/27 07:33:09;;;;;;;4.15;0.80;;;10.90;99.90;;;;;;5065797;28;20091;-52
2022/09/27 07:35:42;;;;;;;3.03;0.77;;;10.90;99.90;;;;;;5078717;28;20122;-53
2022/09/27 07:38:11;;;;;;;5.97;1.00;;;11.00;99.90;;;;;;5061860;28;20040;-49
2022/09/27 07:40:38;;;;;;;3.88;0.90;;;11.10;99.90;;;;;;5072446;28;20044;-51
2022/09/27 07:43:04;;;;;;;8.73;1.15;;;11.40;99.90;;;;;;5071439;28;20048;-49
2022/09/27 07:45:30;;;;;;;8.00;1.20;;;11.70;99.90;;;;;;5075325;28;20109;-52
2022/09/27 07:48:05;;;;;;;5.63;1.73;;;11.80;99.90;;;;;;5078111;28;20074;-52
2022/09/27 07:50:31;;;;;;;6.95;0.95;;;12.10;99.90;;;;;;5054222;28;20473;-54
2022/09/27 07:52:57;;;;;;;5.38;1.77;;;12.30;99.90;;;;;;5067159;28;20040;-52
2022/09/27 07:55:23;;;;;;;4.70;0.90;;;12.30;99.90;;;;;;5066100;28;20052;-51
2022/09/27 07:57:49;;;;;;;6.85;0.95;;;12.50;99.90;;;;;;5071518;28;20040;-51
2022/09/27 08:00:18;;;;;;;6.60;1.52;;;12.40;99.90;;;;;;5061644;28;20066;-53
2022/09/27 08:02:47;;;;;;;5.25;0.85;;;12.50;99.90;;;;;;5065864;28;20770;-53
2022/09/27 08:05:13;;;;;;;5.03;0.95;;;12.50;99.90;;;;;;5055479;28;20044;-50
2022/09/27 08:07:40;;;;;;;4.20;1.60;;;12.10;99.90;;;;;;5067385;28;20051;-52
2022/09/27 08:10:09;;;;;;;6.18;0.95;;;11.90;99.90;;;;;;5070809;28;20171;-50
2022/09/27 08:12:35;;;;;;;3.08;1.20;;;11.80;99.90;;;;;;5052379;28;20135;-51
2022/09/27 08:15:03;;;;;;;4.13;0.95;;;11.60;99.90;;;;;;5059244;28;20132;-51
2022/09/27 08:17:30;;;;;;;5.47;1.35;;;11.50;99.90;;;;;;5056502;28;20063;-53
2022/09/27 08:19:55;;;;;;;4.03;0.95;;;11.30;99.90;;;;;;5058259;28;20044;-53
2022/09/27 08:22:21;;;;;;;4.75;0.95;;;11.20;99.90;;;;;;5060233;28;20584;-52
2022/09/27 08:24:47;;;;;;;2.13;0.70;;;11.10;99.90;;;;;;5061060;28;20094;-54
2022/09/27 08:27:14;;;;;;;2.92;0.70;;;11.10;99.90;;;;;;5060727;28;20044;-52
2022/09/27 08:29:40;;;;;;;3.58;0.98;;;11.10;99.90;;;;;;5052434;28;20045;-49
2022/09/27 08:32:10;;;;;;;3.45;0.77;;;11.20;99.90;;;;;;5055304;28;20140;-50
2022/09/27 08:34:36;;;;;;;6.05;1.10;;;11.20;99.90;;;;;;5052738;28;20040;-51
2022/09/27 08:37:03;;;;;;;3.35;0.82;;;11.30;99.90;;;;;;5049917;28;20397;-50
2022/09/27 08:39:28;;;;;;;3.08;0.90;;;11.30;99.90;;;;;;5054361;28;20238;-54
2022/09/27 08:41:54;;;;;;;9.13;1.30;;;11.40;99.90;;;;;;5055886;28;20052;-50
2022/09/27 08:44:39;;;;;;;4.35;0.75;;;11.60;99.90;;;;;;5058182;28;20052;-53
2022/09/27 08:47:13;;;;;;;3.20;0.85;;;11.60;99.90;;;;;;5057065;28;20419;-54
2022/09/27 08:49:51;;;;;;;6.38;0.95;;;11.60;99.90;;;;;;5047919;28;20131;-52
2022/09/27 08:52:40;;;;;;;4.05;0.63;;;11.60;99.90;;;;;;5050729;28;20098;-53
2022/09/27 08:55:40;;;;;;;4.43;0.80;;;11.70;99.90;;;;;;5055042;28;20048;-52
2022/09/27 08:58:25;;;;;;;3.40;0.80;;;11.80;99.90;;;;;;5050602;28;20056;-51
2022/09/27 09:00:54;;;;;;;5.00;1.33;;;11.80;99.90;;;;;;5050026;28;20118;-55
2022/09/27 09:03:24;;;;;;;4.20;1.08;;;11.90;99.90;;;;;;5052916;28;20043;-56
2022/09/27 09:06:14;;;;;;;2.83;0.73;;;11.90;99.90;;;;;;5048607;28;20052;-53
2022/09/27 09:09:15;;;;;;;5.15;0.95;;;11.90;99.90;;;;;;5058106;28;20049;-53
2022/09/27 09:15:12;;;;;;;4.28;0.90;;;12.10;99.90;;;;;;5018571;28;20049;-53
2022/09/27 09:18:16;;;;;;;3.47;0.77;;;12.10;99.90;;;;;;5013142;28;20067;-55
2022/09/27 09:21:00;;;;;;;3.95;1.15;;;12.10;99.90;;;;;;5012288;28;20072;-55
2022/09/27 09:23:53;;;;;;;3.85;0.68;;;12.20;99.90;;;;;;5015091;28;20064;-53
2022/09/27 09:26:28;;;;;;;2.60;0.73;;;12.20;99.90;;;;;;5016094;28;20045;-52
2022/09/27 09:28:54;;;;;;;4.07;0.70;;;12.10;99.90;;;;;;5012921;28;20171;-52
2022/09/27 09:32:06;;;;;;;2.88;0.85;;;12.10;99.90;;;;;;5015277;28;20045;-54
2022/09/27 09:34:43;;;;;;;4.45;0.73;;;12.20;99.90;;;;;;5016251;28;20092;-55
2022/09/27 09:37:27;;;;;;;2.65;1.02;;;12.20;99.90;;;;;;5018126;28;20519;-53
2022/09/27 09:39:58;;;;;;;2.38;0.52;;;12.30;99.90;;;;;;5001809;28;20168;-54
2022/09/27 09:42:32;;;;;;;3.88;0.63;;;12.40;99.90;;;;;;5018553;28;20057;-54
2022/09/27 09:45:06;;;;;;;1.83;0.57;;;12.50;99.90;;;;;;5018332;28;20111;-55
2022/09/27 09:47:50;;;;;;;1.88;0.70;;;12.50;99.90;;;;;;5018418;28;20068;-54
2022/09/27 09:50:34;;;;;;;2.08;0.50;;;12.50;99.90;;;;;;5061966;28;20048;-55
2022/09/27 09:53:14;;;;;;;1.48;0.50;;;12.60;99.90;;;;;;5063050;28;20060;-51
2022/09/27 09:56:07;;;;;;;2.25;0.45;;;12.70;99.90;;;;;;5045106;28;20139;-55
2022/09/27 09:58:48;;;;;;;2.20;0.43;;;12.70;99.90;;;;;;5062441;28;20075;-55
2022/09/27 10:01:26;;;;;;;5.32;0.98;;;12.70;99.90;;;;;;5041375;28;20052;-54
2022/09/27 10:03:56;;;;;;;3.40;1.30;;;12.80;99.90;;;;;;5059049;28;20044;-54
2022/09/27 10:06:24;;;;;;;2.22;0.65;;;12.70;99.90;;;;;;5057656;28;20056;-55
2022/09/27 10:08:53;;;;;;;4.13;0.77;;;12.60;99.90;;;;;;5060508;28;20201;-56
2022/09/27 10:11:28;;;;;;;2.70;0.93;;;12.70;99.90;;;;;;5063391;28;20107;-52
2022/09/27 10:14:01;;;;;;;2.05;0.80;;;12.90;99.90;;;;;;5044361;28;20135;-53
2022/09/27 10:16:28;;;;;;;3.90;0.80;;;12.80;99.90;;;;;;5052339;28;20044;-53
2022/09/27 10:18:59;;;;;;;1.90;0.40;;;12.50;99.90;;;;;;5061920;28;20044;-54
2022/09/27 10:21:28;;;;;;;2.15;0.60;;;12.40;99.90;;;;;;5056103;28;20111;-53
2022/09/27 10:24:08;;;;;;;4.00;0.60;;;12.20;99.90;;;;;;5060736;28;20136;-56
2022/09/27 10:26:36;;;;;;;3.53;0.60;;;12.10;99.90;;;;;;5052100;28;20556;-52
2022/09/27 10:29:15;;;;;;;4.80;1.27;;;12.10;99.90;;;;;;5035061;28;20151;-53
2022/09/27 10:31:46;;;;;;;3.47;0.52;;;12.00;99.90;;;;;;5053382;28;20755;-55
2022/09/27 10:34:40;;;;;;;2.78;0.80;;;12.00;99.90;;;;;;5042346;28;20056;-55
2022/09/27 10:37:26;;;;;;;3.80;0.60;;;11.90;99.90;;;;;;5046039;28;20053;-53
2022/09/27 10:39:53;;;;;;;2.50;0.60;;;11.90;99.90;;;;;;5058428;28;20045;-53
2022/09/27 10:42:31;;;;;;;2.00;0.75;;;11.90;99.90;;;;;;5054550;28;20512;-56
2022/09/27 10:45:19;;;;;;;2.85;0.60;;;12.00;99.90;;;;;;5046491;28;20076;-54
2022/09/27 10:47:45;;;;;;;3.55;0.68;;;12.10;99.90;;;;;;5055957;28;20140;-52
2022/09/27 10:50:20;;;;;;;4.30;1.73;;;12.20;99.90;;;;;;5054522;28;20060;-53
2022/09/27 10:52:48;;;;;;;2.85;0.90;;;12.30;99.90;;;;;;5056855;28;20093;-51
2022/09/27 10:55:26;;;;;;;2.85;0.73;;;12.40;99.90;;;;;;5064453;28;20056;-55
2022/09/27 10:57:54;;;;;;;4.25;0.88;;;12.60;99.90;;;;;;5036414;28;20049;-53
2022/09/27 11:00:26;;;;;;;5.13;1.30;;;12.60;99.90;;;;;;5057017;28;20057;-54
2022/09/27 11:02:56;;;;;;;5.75;2.15;;;12.70;99.90;;;;;;5064768;28;20041;-54
2022/09/27 11:05:26;;;;;;;3.40;0.77;;;12.90;99.90;;;;;;5056056;28;20109;-51
2022/09/27 11:07:55;;;;;;;4.25;0.73;;;13.00;99.90;;;;;;5062066;28;20052;-49
2022/09/27 11:10:27;;;;;;;4.60;1.15;;;13.20;99.90;;;;;;5052895;28;20491;-51
2022/09/27 11:13:18;;;;;;;5.63;1.15;;;13.30;99.90;;;;;;5067813;28;20113;-51
2022/09/27 11:16:05;;;;;;;8.68;1.40;;;13.50;99.90;;;;;;5020578;28;20057;-52
2022/09/27 11:18:50;;;;;;;4.38;1.30;;;13.60;99.90;;;;;;5016764;28;20095;-52
2022/09/27 11:21:53;;;;;;;4.57;0.85;;;13.80;99.90;;;;;;5023449;28;20068;-53
2022/09/27 11:24:47;;;;;;;5.45;1.02;;;13.90;99.90;;;;;;5021123;28;20056;-51
2022/09/27 11:27:22;;;;;;;4.72;1.00;;;14.10;99.90;;;;;;5011346;28;20065;-52
2022/09/27 11:30:06;;;;;;;7.43;1.13;;;14.20;99.90;;;;;;5004087;28;20103;-51
2022/09/27 11:33:09;;;;;;;7.30;1.00;;;14.10;99.90;;;;;;5014480;28;20107;-50
2022/09/27 11:36:06;;;;;;;6.55;1.33;;;14.00;99.90;;;;;;5020308;28;20045;-49
2022/09/27 11:39:18;;;;;;;4.53;1.13;;;14.10;99.90;;;;;;5015010;28;20053;-50
2022/09/27 11:42:09;;;;;;;7.63;1.10;;;14.10;99.90;;;;;;5020182;28;20055;-54
2022/09/27 11:44:53;;;;;;;5.05;0.90;;;14.10;99.90;;;;;;5000429;28;20058;-55
2022/09/27 11:47:57;;;;;;;4.78;1.08;;;14.10;99.90;;;;;;5013339;28;20073;-55
2022/09/27 11:50:29;;;;;;;;;;;14.10;99.90;;;;;;4972590;28;20065;-60
2022/09/27 11:53:24;;;;;;;5.10;0.82;;;14.00;99.90;;;;;;4965892;28;20013;-54
2022/09/27 11:56:09;;;;;;;5.82;1.10;;;14.00;99.90;;;;;;4943999;28;20621;-55
2022/09/27 11:59:06;;;;;;;3.92;0.93;;;14.00;99.90;;;;;;4987109;28;20645;-53
2022/09/27 12:02:03;;;;;;;2.50;0.80;;;14.10;99.90;;;;;;4977794;28;20116;-56
2022/09/27 12:04:57;;;;;;;5.35;1.08;;;14.00;99.90;;;;;;4978773;28;20053;-55
2022/09/27 12:07:42;;;;;;;5.18;1.15;;;13.90;99.90;;;;;;4975849;28;20611;-56
2022/09/27 12:10:17;;;;;;;1.63;0.60;;;13.90;99.90;;;;;;4965548;28;20152;-56
2022/09/27 12:12:50;;;;;;;3.83;0.82;;;13.80;99.90;;;;;;4990275;28;20428;-52
2022/09/27 12:15:29;;;;;;;4.18;0.73;;;13.80;99.90;;;;;;4988753;28;20057;-56
2022/09/27 12:18:25;;;;;;;4.68;1.00;;;13.90;99.90;;;;;;4989131;28;20050;-56
2022/09/27 12:20:53;;;;;;;3.22;0.52;;;13.90;99.90;;;;;;4983506;28;20093;-55
2022/09/27 12:23:25;;;;;;;4.18;0.60;;;13.90;99.90;;;;;;4980398;28;20078;-54
2022/09/27 12:26:02;;;;;;;3.85;0.75;;;13.90;99.90;;;;;;4980428;28;20054;-55
2022/09/27 12:28:53;;;;;;;4.40;0.93;;;14.10;99.90;;;;;;5064003;28;20285;-55
2022/09/27 12:31:25;;;;;;;3.05;0.95;;;14.20;99.90;;;;;;5051475;28;20084;-55
2022/09/27 12:34:31;;;;;;;5.90;1.65;;;14.20;99.90;;;;;;5060488;28;20139;-56
2022/09/27 12:37:19;;;;;;;5.53;1.00;;;14.10;99.90;;;;;;5057919;28;20054;-56
2022/09/27 12:39:48;;;;;;;5.95;1.13;;;14.20;99.90;;;;;;5034810;28;20044;-55
2022/09/27 12:42:29;;;;;;;6.90;0.98;;;14.10;99.90;;;;;;5054767;28;20055;-56
2022/09/27 12:45:01;;;;;;;3.63;1.02;;;13.90;99.90;;;;;;5056467;28;20127;-58
2022/09/27 12:48:08;;;;;;;4.10;0.88;;;13.90;99.90;;;;;;5052153;28;20059;-56
2022/09/27 12:50:49;;;;;;;2.00;0.60;;;13.90;99.90;;;;;;5060828;28;20055;-56
2022/09/27 12:53:28;;;;;;;1.13;0.50;;;13.60;99.90;;;;;;5058846;28;20048;-53
2022/09/27 12:56:32;;;;;;;1.90;0.70;;;13.20;99.90;;;;;;5058808;28;20059;-54
2022/09/27 12:59:04;;;;;;;;;;;12.90;99.90;;;;;;5056418;28;20108;-54
2022/09/27 13:01:48;;;;;;;7.70;1.33;;;12.60;99.90;;;;;;5058499;28;19924;-56
2022/09/27 13:04:21;;;;;;;3.70;1.00;;;12.30;99.90;;;;;;5060330;28;20049;-59
2022/09/27 13:07:11;;;;;;;5.70;1.10;;;12.00;99.90;;;;;;5060860;28;20084;-57
2022/09/27 13:09:46;;;;;;;4.63;1.00;;;11.90;99.90;;;;;;5065086;28;20578;-52
2022/09/27 13:12:18;;;;;;;4.18;0.90;;;11.60;99.90;;;;;;5062271;28;20793;-55
2022/09/27 13:14:53;;;;;;;7.28;1.80;;;11.30;99.90;;;;;;5069872;28;20056;-56
2022/09/27 13:17:39;;;;;;;5.38;1.10;;;11.10;99.90;;;;;;5064692;28;20048;-53
2022/09/27 13:20:36;;;;;;;3.70;0.63;;;10.90;99.90;;;;;;5057181;28;20056;-54
2022/09/27 13:23:11;;;;;;;2.58;0.70;;;10.80;99.90;;;;;;5066903;28;20075;-55
2022/09/27 13:26:02;;;;;;;4.53;0.95;;;10.60;99.90;;;;;;5059377;28;20084;-56
2022/09/27 13:28:32;;;;;;;3.00;0.60;;;10.60;99.90;;;;;;5046959;28;20647;-55
2022/09/27 13:31:02;;;;;;;4.43;0.60;;;10.60;99.90;;;;;;5060562;28;20056;-56
2022/09/27 13:33:52;;;;;;;5.68;1.20;;;10.60;99.90;;;;;;5058469;28;20594;-55